createdAt,value
2023-05-14T00:00:47.441Z,98084.66
2023-05-14T00:03:49.675Z,98084.66
2023-05-14T00:06:51.947Z,98079.53
2023-05-14T00:09:54.075Z,98073.41
2023-05-14T00:12:56.252Z,98070.19
2023-05-14T00:15:58.588Z,98066.47
2023-05-14T00:19:01.721Z,98064.63
2023-05-14T00:22:04.024Z,98063.25
2023-05-14T00:25:07.862Z,98053.84
2023-05-14T00:28:16.214Z,98058.72
2023-05-14T00:31:19.346Z,98053.63
2023-05-14T00:34:21.821Z,98054.47
2023-05-14T00:37:24.006Z,98036.72
2023-05-14T00:40:27.305Z,98041.38
2023-05-14T00:43:29.589Z,98048.53
2023-05-14T00:46:32.227Z,98048.78
2023-05-14T00:49:36.386Z,98044.84
2023-05-14T00:52:44.312Z,98035.25
2023-05-14T00:55:48.196Z,98042.16
2023-05-14T00:58:50.356Z,98044.84
2023-05-14T01:01:53.012Z,98027.03
2023-05-14T01:04:55.889Z,98018.25
2023-05-14T01:08:07.235Z,98017.91
2023-05-14T01:11:19.877Z,98023.22
2023-05-14T01:14:32.862Z,98010.22
2023-05-14T01:17:42.594Z,98027.50
2023-05-14T01:20:50.845Z,98022.19
2023-05-14T01:23:53.080Z,98019.97
2023-05-14T01:27:04.334Z,98019.97
2023-05-14T01:30:25.300Z,98019.97
2023-05-14T01:33:31.096Z,98014.41
2023-05-14T01:36:49.294Z,98011.75
2023-05-14T01:40:09.314Z,98017.06
2023-05-14T01:43:30.602Z,98014.63
2023-05-14T01:46:39.653Z,98009.31
2023-05-14T01:49:44.105Z,98004.25
2023-05-14T01:52:48.893Z,97997.88
2023-05-14T01:55:51.298Z,97986.75
2023-05-14T01:58:53.530Z,97993.97
2023-05-14T02:01:56.411Z,98000.09
2023-05-14T02:04:58.644Z,97989.91
2023-05-14T02:08:01.009Z,97984.00
2023-05-14T02:11:03.406Z,97985.88
2023-05-14T02:14:06.014Z,97976.03
2023-05-14T02:17:09.146Z,97977.66
2023-05-14T02:20:11.811Z,97983.78
2023-05-14T02:23:14.081Z,97983.53
2023-05-14T02:26:18.009Z,97980.69
2023-05-14T02:29:20.621Z,97983.34
2023-05-14T02:32:22.964Z,97980.88
2023-05-14T02:35:27.082Z,97982.38
2023-05-14T02:38:30.523Z,97968.59
2023-05-14T02:41:32.710Z,97987.69
2023-05-14T02:44:34.813Z,97987.47
2023-05-14T02:47:38.247Z,97980.31
2023-05-14T02:50:40.636Z,97981.13
2023-05-14T02:53:43.106Z,97984.59
2023-05-14T02:56:45.473Z,97982.16
2023-05-14T02:59:47.687Z,97989.09
2023-05-14T03:02:50.474Z,97989.91
2023-05-14T03:06:02.081Z,97983.78
2023-05-14T03:09:18.191Z,97984.00
2023-05-14T03:12:24.186Z,97969.78
2023-05-14T03:15:26.846Z,97977.06
2023-05-14T03:18:30.910Z,97968.50
2023-05-14T03:21:33.306Z,97962.13
2023-05-14T03:24:39.343Z,97966.28
2023-05-14T03:27:41.911Z,97963.84
2023-05-14T03:30:44.058Z,97965.47
2023-05-14T03:33:46.828Z,97965.47
2023-05-14T03:36:49.008Z,97951.59
2023-05-14T03:39:51.358Z,97957.72
2023-05-14T03:42:53.553Z,97949.19
2023-05-14T03:45:55.894Z,97953.09
2023-05-14T03:48:58.423Z,97950.19
2023-05-14T03:52:00.783Z,97957.38
2023-05-14T03:55:03.032Z,97945.34
2023-05-14T03:58:11.141Z,97941.09
2023-05-14T04:01:13.357Z,97939.00
2023-05-14T04:04:15.663Z,97944.31
2023-05-14T04:07:18.700Z,97940.25
2023-05-14T04:10:20.852Z,97952.84
2023-05-14T04:13:23.108Z,97951.84
2023-05-14T04:16:25.277Z,97951.00
2023-05-14T04:19:27.514Z,97952.84
2023-05-14T04:22:29.552Z,97953.47
2023-05-14T04:25:31.776Z,97951.84
2023-05-14T04:28:33.902Z,97950.19
2023-05-14T04:31:36.808Z,97943.88
2023-05-14T04:34:38.995Z,97946.97
2023-05-14T04:37:41.672Z,97940.84
2023-05-14T04:40:43.825Z,97941.66
2023-05-14T04:43:49.991Z,97943.28
2023-05-14T04:46:53.563Z,97942.69
2023-05-14T04:49:55.958Z,97942.91
2023-05-14T04:52:58.727Z,97945.00
2023-05-14T04:56:00.995Z,97949.25
2023-05-14T04:59:03.123Z,97958.03
2023-05-14T05:02:05.327Z,97947.41
2023-05-14T05:05:07.764Z,97953.78
2023-05-14T05:08:12.075Z,97950.31
2023-05-14T05:11:15.192Z,97946.03
2023-05-14T05:14:18.370Z,97924.72
2023-05-14T05:17:22.151Z,97946.28
2023-05-14T05:20:25.619Z,97951.34
2023-05-14T05:23:28.760Z,97937.69
2023-05-14T05:26:32.180Z,97938.88
2023-05-14T05:29:35.091Z,97931.19
2023-05-14T05:32:44.781Z,97933.78
2023-05-14T05:36:00.254Z,97923.72
2023-05-14T05:39:22.764Z,97927.44
2023-05-14T05:42:27.090Z,97907.88
2023-05-14T05:45:29.617Z,97915.06
2023-05-14T05:48:43.887Z,97920.13
2023-05-14T05:51:54.576Z,97924.63
2023-05-14T05:55:11.617Z,97925.44
2023-05-14T05:58:18.208Z,97929.72
2023-05-14T06:01:30.672Z,97931.34
2023-05-14T06:04:47.752Z,97928.09
2023-05-14T06:07:57.259Z,97911.91
2023-05-14T06:11:01.149Z,97925.31
2023-05-14T06:14:03.799Z,97920.56
2023-05-14T06:17:06.174Z,97917.91
2023-05-14T06:20:09.392Z,97924.72
2023-05-14T06:23:13.066Z,97919.41
2023-05-14T06:26:16.696Z,97914.69
2023-05-14T06:29:20.324Z,97914.91
2023-05-14T06:32:24.781Z,97913.28
2023-05-14T06:35:27.268Z,97923.91
2023-05-14T06:38:33.623Z,97920.22
2023-05-14T06:41:37.003Z,97928.22
2023-05-14T06:44:39.271Z,97923.09
2023-05-14T06:47:41.701Z,97923.09
2023-05-14T06:50:44.580Z,97922.53
2023-05-14T06:53:51.211Z,97923.34
2023-05-14T06:56:54.906Z,97920.09
2023-05-14T07:00:03.035Z,97923.91
2023-05-14T07:03:13.911Z,97903.72
2023-05-14T07:06:23.853Z,97916.28
2023-05-14T07:09:43.730Z,97918.41
2023-05-14T07:12:48.483Z,97908.84
2023-05-14T07:15:51.857Z,97905.13
2023-05-14T07:18:54.527Z,97907.78
2023-05-14T07:21:58.110Z,97903.06
2023-05-14T07:25:00.531Z,97899.38
2023-05-14T07:28:03.040Z,97901.19
2023-05-14T07:31:09.896Z,97897.97
2023-05-14T07:34:14.154Z,97895.31
2023-05-14T07:37:25.252Z,97896.13
2023-05-14T07:40:41.861Z,97901.00
2023-05-14T07:43:47.788Z,97890.00
2023-05-14T07:46:51.846Z,97882.72
2023-05-14T07:49:57.096Z,97868.72
2023-05-14T07:52:59.676Z,97867.56
2023-05-14T07:56:03.094Z,97872.44
2023-05-14T07:59:07.406Z,97869.56
2023-05-14T08:02:13.482Z,97873.63
2023-05-14T08:05:19.404Z,97858.13
2023-05-14T08:08:32.670Z,97869.56
2023-05-14T08:11:51.284Z,97864.25
2023-05-14T08:14:55.838Z,97869.00
2023-05-14T08:18:04.082Z,97859.41
2023-05-14T08:21:06.770Z,97856.16
2023-05-14T08:24:09.347Z,97855.34
2023-05-14T08:27:14.186Z,97854.91
2023-05-14T08:30:19.482Z,97851.78
2023-05-14T08:33:22.810Z,97856.88
2023-05-14T08:36:25.594Z,97847.88
2023-05-14T08:39:28.233Z,97851.69
2023-05-14T08:42:32.139Z,97854.78
2023-05-14T08:45:35.782Z,97853.19
2023-05-14T08:48:43.869Z,97844.16
2023-05-14T08:51:51.198Z,97848.53
2023-05-14T08:54:54.557Z,97847.06
2023-05-14T08:57:57.343Z,97849.34
2023-05-14T09:01:00.640Z,97847.06
2023-05-14T09:04:08.881Z,97851.44
2023-05-14T09:07:11.895Z,97848.97
2023-05-14T09:10:16.018Z,97838.81
2023-05-14T09:13:18.643Z,97841.00
2023-05-14T09:16:22.157Z,97836.50
2023-05-14T09:19:24.736Z,97833.84
2023-05-14T09:22:32.175Z,97831.66
2023-05-14T09:25:36.832Z,97835.25
2023-05-14T09:28:42.332Z,97816.16
2023-05-14T09:31:46.253Z,97814.09
2023-05-14T09:34:48.663Z,97819.31
2023-05-14T09:37:53.602Z,97823.59
2023-05-14T09:40:56.439Z,97813.78
2023-05-14T09:43:59.441Z,97818.03
2023-05-14T09:47:02.453Z,97814.25
2023-05-14T09:50:06.263Z,97817.34
2023-05-14T09:53:08.863Z,97789.16
2023-05-14T09:56:11.462Z,97798.50
2023-05-14T09:59:14.019Z,97797.81
2023-05-14T10:02:30.106Z,97801.66
2023-05-14T10:05:37.077Z,97806.41
2023-05-14T10:08:44.628Z,97800.28
2023-05-14T10:11:52.951Z,97798.06
2023-05-14T10:14:58.132Z,97790.72
2023-05-14T10:18:44.264Z,97793.38
2023-05-14T10:22:34.566Z,97779.47
2023-05-14T10:25:39.189Z,97770.47
2023-05-14T10:28:42.293Z,97769.44
2023-05-14T10:31:53.432Z,97769.78
2023-05-14T10:34:55.931Z,97767.94
2023-05-14T10:37:59.796Z,97774.66
2023-05-14T10:41:08.117Z,97767.72
2023-05-14T10:44:11.809Z,97761.25
2023-05-14T10:47:16.651Z,97763.91
2023-05-14T10:50:19.644Z,97768.97
2023-05-14T10:53:49.172Z,97760.44
2023-05-14T10:56:54.156Z,97768.88
2023-05-14T10:59:58.058Z,97755.13
2023-05-14T11:03:00.884Z,97746.56
2023-05-14T11:06:05.154Z,97728.06
2023-05-14T11:09:08.028Z,97740.56
2023-05-14T11:12:10.632Z,97750.72
2023-05-14T11:15:16.346Z,97742.53
2023-05-14T11:18:33.305Z,97737.34
2023-05-14T11:21:53.145Z,97744.16
2023-05-14T11:24:58.704Z,97736.63
2023-05-14T11:28:13.703Z,97732.22
2023-05-14T11:31:18.819Z,97724.59
2023-05-14T11:34:22.740Z,97709.81
2023-05-14T11:37:25.025Z,97704.38
2023-05-14T11:40:27.469Z,97688.66
2023-05-14T11:43:30.967Z,97700.31
2023-05-14T11:46:33.133Z,97685.16
2023-05-14T11:49:38.758Z,97683.66
2023-05-14T11:52:41.942Z,97685.25
2023-05-14T11:55:44.251Z,97673.81
2023-05-14T11:58:49.860Z,97671.50
2023-05-14T12:01:55.428Z,97675.06
2023-05-14T12:04:58.503Z,97674.03
2023-05-14T12:08:00.901Z,97675.41
2023-05-14T12:11:03.738Z,97675.16
2023-05-14T12:14:16.968Z,97667.91
2023-05-14T12:17:21.765Z,97660.41
2023-05-14T12:20:24.452Z,97653.44
2023-05-14T12:23:31.177Z,97650.31
2023-05-14T12:26:34.853Z,97640.25
2023-05-14T12:29:39.510Z,97642.69
2023-05-14T12:32:42.004Z,97634.13
2023-05-14T12:35:45.345Z,97639.22
2023-05-14T12:38:47.669Z,97634.47
2023-05-14T12:41:49.816Z,97624.16
2023-05-14T12:44:52.063Z,97618.34
2023-05-14T12:47:54.826Z,97614.69
2023-05-14T12:50:58.195Z,97617.91
2023-05-14T12:54:00.748Z,97620.31
2023-05-14T12:57:04.462Z,97620.66
2023-05-14T13:00:09.903Z,97628.88
2023-05-14T13:03:14.415Z,97627.81
2023-05-14T13:06:16.849Z,97624.66
2023-05-14T13:09:19.089Z,97629.44
2023-05-14T13:12:21.447Z,97624.09
2023-05-14T13:15:23.972Z,97605.25
2023-05-14T13:18:26.995Z,97604.78
2023-05-14T13:21:29.708Z,97599.44
2023-05-14T13:24:31.887Z,97605.91
2023-05-14T13:27:36.172Z,97596.06
2023-05-14T13:30:38.810Z,97576.78
2023-05-14T13:33:42.843Z,97586.50
2023-05-14T13:36:47.395Z,97586.00
2023-05-14T13:39:51.290Z,97583.66
2023-05-14T13:42:56.998Z,97579.66
2023-05-14T13:46:07.147Z,97587.94
2023-05-14T13:49:24.401Z,97579.66
2023-05-14T13:52:27.620Z,97572.22
2023-05-14T13:56:06.953Z,97120.56
2023-05-14T13:59:10.446Z,97587.84
2023-05-14T14:02:12.940Z,97583.31
2023-05-14T14:05:15.688Z,97578.00
2023-05-14T14:08:24.017Z,97566.25
2023-05-14T14:11:27.354Z,97561.72
2023-05-14T14:14:30.028Z,97569.13
2023-05-14T14:17:34.131Z,97564.63
2023-05-14T14:20:36.528Z,97561.00
2023-05-14T14:23:38.780Z,97557.22
2023-05-14T14:26:41.006Z,97557.22
2023-05-14T14:29:43.742Z,97551.66
2023-05-14T14:32:47.356Z,97555.81
2023-05-14T14:35:49.511Z,97550.59
2023-05-14T14:38:51.725Z,97542.06
2023-05-14T14:41:54.368Z,97547.03
2023-05-14T14:44:56.489Z,97548.19
2023-05-14T14:48:25.309Z,97554.78
2023-05-14T14:51:28.031Z,97542.38
2023-05-14T14:54:30.149Z,97535.44
2023-05-14T14:57:32.322Z,97539.47
2023-05-14T15:00:34.571Z,97527.84
2023-05-14T15:03:36.905Z,97531.91
2023-05-14T15:06:44.204Z,97525.44
2023-05-14T15:09:46.330Z,97524.88
2023-05-14T15:12:48.557Z,97507.78
2023-05-14T15:15:52.449Z,97497.16
2023-05-14T15:18:54.799Z,97505.44
2023-05-14T15:21:57.050Z,97502.78
2023-05-14T15:25:00.018Z,97494.66
2023-05-14T15:28:02.110Z,97476.00
2023-05-14T15:31:04.394Z,97477.94
2023-05-14T15:34:07.140Z,97486.72
2023-05-14T15:37:10.979Z,97486.97
2023-05-14T15:40:13.513Z,97494.97
2023-05-14T15:43:15.654Z,97481.91
2023-05-14T15:46:17.891Z,97471.34
2023-05-14T15:49:20.012Z,97459.50
2023-05-14T15:52:23.257Z,97470.34
2023-05-14T15:55:25.377Z,97476.72
2023-05-14T15:58:28.309Z,97475.94
2023-05-14T16:01:30.764Z,97467.69
2023-05-14T16:04:32.872Z,97462.88
2023-05-14T16:07:35.518Z,97461.81
2023-05-14T16:10:37.876Z,97453.28
2023-05-14T16:13:41.819Z,97458.69
2023-05-14T16:16:43.999Z,97446.66
2023-05-14T16:19:46.454Z,97434.16
2023-05-14T16:22:48.772Z,97441.34
2023-05-14T16:25:50.948Z,97440.28
2023-05-14T16:28:53.160Z,97439.47
2023-05-14T16:31:56.091Z,97436.81
2023-05-14T16:34:58.639Z,97428.03
2023-05-14T16:38:02.327Z,97428.84
2023-05-14T16:41:07.336Z,97432.09
2023-05-14T16:44:09.674Z,97427.78
2023-05-14T16:47:11.932Z,97425.72
2023-05-14T16:50:14.952Z,97424.66
2023-05-14T16:53:17.124Z,97422.25
2023-05-14T16:56:19.375Z,97415.06
2023-05-14T16:59:21.696Z,97421.19
2023-05-14T17:02:23.806Z,97413.22
2023-05-14T17:05:27.037Z,97403.38
2023-05-14T17:08:33.754Z,97412.41
2023-05-14T17:11:36.499Z,97405.22
2023-05-14T17:14:38.612Z,97403.38
2023-05-14T17:17:41.575Z,97413.22
2023-05-14T17:20:44.065Z,97399.09
2023-05-14T17:23:46.286Z,97399.91
2023-05-14T17:26:48.341Z,97397.25
2023-05-14T17:29:51.409Z,97391.91
2023-05-14T17:32:53.674Z,97396.44
2023-05-14T17:35:55.978Z,97383.94
2023-05-14T17:38:58.148Z,97373.28
2023-05-14T17:42:00.793Z,97377.56
2023-05-14T17:45:02.972Z,97385.53
2023-05-14T17:48:05.394Z,97375.97
2023-05-14T17:51:07.605Z,97374.09
2023-05-14T17:54:09.795Z,97372.50
2023-05-14T17:57:12.362Z,97371.44
2023-05-14T18:00:14.906Z,97366.38
2023-05-14T18:03:18.180Z,97369.03
2023-05-14T18:06:20.539Z,97359.13
2023-05-14T18:09:23.347Z,97363.94
2023-05-14T18:12:26.875Z,97359.44
2023-05-14T18:15:31.898Z,97352.25
2023-05-14T18:18:34.482Z,97351.47
2023-05-14T18:21:37.222Z,97346.94
2023-05-14T18:24:39.505Z,97350.41
2023-05-14T18:27:47.558Z,97351.22
2023-05-14T18:30:50.313Z,97342.44
2023-05-14T18:33:54.657Z,97333.66
2023-05-14T18:36:57.822Z,97337.31
2023-05-14T18:39:59.920Z,97331.22
2023-05-14T18:43:02.457Z,97330.97
2023-05-14T18:46:04.964Z,97316.63
2023-05-14T18:49:07.425Z,97313.97
2023-05-14T18:52:09.935Z,97315.03
2023-05-14T18:55:12.380Z,97308.66
2023-05-14T18:58:15.036Z,97310.25
2023-05-14T19:01:17.514Z,97296.94
2023-05-14T19:04:20.067Z,97297.75
2023-05-14T19:07:22.950Z,97298.53
2023-05-14T19:10:25.539Z,97299.34
2023-05-14T19:13:28.829Z,97301.22
2023-05-14T19:16:31.047Z,97307.31
2023-05-14T19:19:33.622Z,97294.47
2023-05-14T19:22:36.529Z,97310.00
2023-05-14T19:25:38.842Z,97307.59
2023-05-14T19:28:41.903Z,97308.38
2023-05-14T19:31:44.127Z,97296.13
2023-05-14T19:34:46.342Z,97293.00
2023-05-14T19:37:48.502Z,97291.38
2023-05-14T19:40:51.452Z,97292.19
2023-05-14T19:43:54.034Z,97288.47
2023-05-14T19:46:56.351Z,97282.91
2023-05-14T19:49:58.628Z,97282.09
2023-05-14T19:53:09.130Z,97273.06
2023-05-14T19:56:11.473Z,97273.06
2023-05-14T19:59:13.958Z,97262.41
2023-05-14T20:02:18.847Z,97271.19
2023-05-14T20:05:24.093Z,97275.72
2023-05-14T20:08:27.078Z,97281.03
2023-05-14T20:11:29.999Z,97285.31
2023-05-14T20:14:32.645Z,97274.66
2023-05-14T20:17:34.898Z,97279.97
2023-05-14T20:20:37.761Z,97285.31
2023-05-14T20:23:39.947Z,97281.84
2023-05-14T20:26:42.257Z,97266.69
2023-05-14T20:29:45.494Z,97266.47
2023-05-14T20:32:47.596Z,97258.47
2023-05-14T20:35:49.824Z,97245.16
2023-05-14T20:38:52.977Z,97248.63
2023-05-14T20:41:55.326Z,97250.72
2023-05-14T20:44:57.586Z,97249.91
2023-05-14T20:47:59.833Z,97247.25
2023-05-14T20:51:02.016Z,97240.06
2023-05-14T20:54:04.408Z,97234.75
2023-05-14T20:57:06.981Z,97237.41
2023-05-14T21:00:10.213Z,97233.16
2023-05-14T21:03:12.501Z,97216.13
2023-05-14T21:06:15.039Z,97215.91
2023-05-14T21:09:17.196Z,97212.44
2023-05-14T21:12:19.877Z,97188.19
2023-05-14T21:15:22.010Z,97193.81
2023-05-14T21:18:27.294Z,97191.94
2023-05-14T21:21:30.736Z,97211.38
2023-05-14T21:24:32.841Z,97215.63
2023-05-14T21:27:35.153Z,97196.22
2023-05-14T21:30:37.382Z,97191.69
2023-05-14T21:33:41.002Z,97178.38
2023-05-14T21:36:43.616Z,97159.22
2023-05-14T21:39:46.091Z,97133.38
2023-05-14T21:42:48.329Z,97118.16
2023-05-14T21:45:50.756Z,97122.09
2023-05-14T21:48:53.067Z,97135.41
2023-05-14T21:51:55.317Z,97135.41
2023-05-14T21:54:57.412Z,97131.94
2023-05-14T21:58:00.173Z,97146.84
2023-05-14T22:01:02.404Z,97160.16
2023-05-14T22:04:05.245Z,97174.03
2023-05-14T22:07:07.278Z,97179.34
2023-05-14T22:10:10.051Z,97178.28
2023-05-14T22:13:12.879Z,97178.03
2023-05-14T22:16:15.286Z,97169.25
2023-05-14T22:19:17.985Z,97163.44
2023-05-14T22:22:20.177Z,97160.78
2023-05-14T22:25:22.534Z,97150.13
2023-05-14T22:28:24.980Z,97143.75
2023-05-14T22:31:27.181Z,97125.59
2023-05-14T22:34:29.218Z,97129.59
2023-05-14T22:37:31.326Z,97148.44
2023-05-14T22:40:33.899Z,97162.56
2023-05-14T22:43:36.094Z,97163.38
2023-05-14T22:46:38.633Z,97167.06
2023-05-14T22:49:40.931Z,97155.41
2023-05-14T22:52:43.034Z,97150.63
2023-05-14T22:55:45.269Z,97130.13
2023-05-14T22:58:47.968Z,97098.97
2023-05-14T23:01:50.103Z,97100.31
2023-05-14T23:04:52.784Z,97107.50
2023-05-14T23:07:55.649Z,97105.88
2023-05-14T23:10:57.800Z,97103.22
2023-05-14T23:14:00.106Z,97089.91
2023-05-14T23:17:02.864Z,97097.09
2023-05-14T23:20:06.329Z,97092.28
2023-05-14T23:23:08.640Z,97093.09
2023-05-14T23:26:10.866Z,97089.63
2023-05-14T23:29:13.536Z,97080.59
2023-05-14T23:32:16.218Z,97095.75
2023-05-14T23:35:19.173Z,97095.75
2023-05-14T23:38:21.331Z,97078.19
2023-05-14T23:41:23.636Z,97084.53
2023-05-14T23:44:25.830Z,97094.38
2023-05-14T23:47:28.246Z,97083.50
2023-05-14T23:50:31.323Z,97084.31
2023-05-14T23:53:33.692Z,97090.44
2023-05-14T23:56:36.425Z,97087.41
2023-05-14T23:59:40.340Z,97097.84
